createdAt,value
2019-06-26T00:00:18.672Z,23.81
2019-06-26T00:02:44.897Z,23.69
2019-06-26T00:05:10.983Z,23.55
2019-06-26T00:07:36.841Z,23.45
2019-06-26T00:10:04.318Z,23.46
2019-06-26T00:12:30.271Z,23.54
2019-06-26T00:14:56.086Z,23.34
2019-06-26T00:17:21.950Z,23.21
2019-06-26T00:19:47.813Z,23.15
2019-06-26T00:22:13.688Z,23.12
2019-06-26T00:24:39.571Z,22.90
2019-06-26T00:27:05.430Z,22.84
2019-06-26T00:29:31.620Z,22.91
2019-06-26T00:31:57.578Z,22.87
2019-06-26T00:34:23.478Z,22.65
2019-06-26T00:36:49.316Z,22.84
2019-06-26T00:39:15.166Z,22.87
2019-06-26T00:41:41.041Z,23.27
2019-06-26T00:44:06.976Z,22.98
2019-06-26T00:46:32.850Z,22.89
2019-06-26T00:48:58.761Z,22.63
2019-06-26T00:51:24.622Z,22.60
2019-06-26T00:53:50.481Z,22.72
2019-06-26T00:56:16.354Z,23.10
2019-06-26T00:58:42.230Z,23.32
2019-06-26T01:01:08.080Z,22.82
2019-06-26T01:03:33.927Z,22.88
2019-06-26T01:05:59.878Z,22.38
2019-06-26T01:08:25.745Z,22.19
2019-06-26T01:10:51.606Z,22.00
2019-06-26T01:13:17.453Z,21.93
2019-06-26T01:15:43.541Z,22.13
2019-06-26T01:18:09.519Z,22.18
2019-06-26T01:20:35.370Z,22.14
2019-06-26T01:23:01.224Z,21.82
2019-06-26T01:25:27.090Z,21.98
2019-06-26T01:27:53.760Z,21.57
2019-06-26T01:30:19.995Z,22.00
2019-06-26T01:32:45.879Z,21.84
2019-06-26T01:35:11.958Z,22.25
2019-06-26T01:37:37.813Z,21.69
2019-06-26T01:40:07.352Z,21.37
2019-06-26T01:42:33.196Z,21.16
2019-06-26T01:44:59.058Z,21.12
2019-06-26T01:47:24.927Z,21.57
2019-06-26T01:49:50.774Z,21.57
2019-06-26T01:52:16.638Z,21.32
2019-06-26T01:54:42.501Z,21.14
2019-06-26T01:57:08.363Z,21.00
2019-06-26T01:59:34.253Z,21.01
2019-06-26T02:02:00.115Z,20.98
2019-06-26T02:04:25.990Z,21.58
2019-06-26T02:06:51.847Z,21.76
2019-06-26T02:09:17.713Z,21.88
2019-06-26T02:11:43.554Z,21.61
2019-06-26T02:14:09.412Z,22.04
2019-06-26T02:16:35.278Z,21.41
2019-06-26T02:19:03.038Z,21.14
2019-06-26T02:21:28.898Z,21.56
2019-06-26T02:23:54.753Z,21.11
2019-06-26T02:26:20.689Z,21.07
2019-06-26T02:28:46.670Z,20.90
2019-06-26T02:31:12.551Z,20.63
2019-06-26T02:33:38.416Z,20.54
2019-06-26T02:36:04.330Z,20.70
2019-06-26T02:38:30.224Z,20.51
2019-06-26T02:40:56.065Z,20.55
2019-06-26T02:43:22.028Z,20.50
2019-06-26T02:45:47.917Z,20.41
2019-06-26T02:48:13.771Z,20.50
2019-06-26T02:50:39.614Z,20.41
2019-06-26T02:53:05.490Z,20.50
2019-06-26T02:55:31.341Z,20.61
2019-06-26T02:57:57.214Z,20.63
2019-06-26T03:00:23.081Z,20.54
2019-06-26T03:02:48.969Z,20.53
2019-06-26T03:05:14.828Z,20.48
2019-06-26T03:07:40.752Z,20.23
2019-06-26T03:10:07.574Z,20.22
2019-06-26T03:12:34.062Z,20.26
2019-06-26T03:15:08.858Z,20.26
2019-06-26T03:17:27.730Z,20.16
2019-06-26T03:19:53.606Z,19.99
2019-06-26T03:22:19.441Z,20.04
2019-06-26T03:24:45.307Z,20.12
2019-06-26T03:27:11.160Z,20.14
2019-06-26T03:29:37.014Z,20.20
2019-06-26T03:32:02.882Z,20.16
2019-06-26T03:34:28.784Z,20.15
2019-06-26T03:36:54.663Z,20.18
2019-06-26T03:39:20.647Z,20.19
2019-06-26T03:41:46.566Z,20.15
2019-06-26T03:44:12.543Z,19.70
2019-06-26T03:46:38.422Z,19.95
2019-06-26T03:49:04.277Z,19.95
2019-06-26T03:51:30.145Z,20.07
2019-06-26T03:53:55.999Z,20.08
2019-06-26T03:56:21.871Z,20.11
2019-06-26T03:58:47.728Z,20.27
2019-06-26T04:01:13.625Z,20.07
2019-06-26T04:03:39.450Z,20.08
2019-06-26T04:06:05.293Z,19.90
2019-06-26T04:08:31.143Z,19.94
2019-06-26T04:10:57.000Z,19.92
2019-06-26T04:13:22.857Z,19.89
2019-06-26T04:15:50.914Z,20.17
2019-06-26T04:18:16.486Z,20.03
2019-06-26T04:20:42.339Z,20.07
2019-06-26T04:23:08.263Z,19.89
2019-06-26T04:25:34.208Z,19.98
2019-06-26T04:28:00.004Z,19.93
2019-06-26T04:30:26.389Z,19.92
2019-06-26T04:32:52.355Z,20.07
2019-06-26T04:35:18.226Z,20.00
2019-06-26T04:37:44.129Z,20.05
2019-06-26T04:40:10.294Z,20.17
2019-06-26T04:42:36.124Z,20.24
2019-06-26T04:45:04.381Z,20.17
2019-06-26T04:47:30.245Z,20.14
2019-06-26T04:49:56.097Z,20.05
2019-06-26T04:52:21.991Z,19.99
2019-06-26T04:54:47.854Z,20.17
2019-06-26T04:57:13.699Z,19.97
2019-06-26T04:59:39.746Z,19.89
2019-06-26T05:02:05.626Z,19.97
2019-06-26T05:04:31.487Z,20.07
2019-06-26T05:06:57.341Z,20.52
2019-06-26T05:09:23.198Z,20.53
2019-06-26T05:11:49.053Z,20.46
2019-06-26T05:14:14.926Z,20.58
2019-06-26T05:16:40.784Z,20.45
2019-06-26T05:19:06.628Z,20.36
2019-06-26T05:21:32.481Z,20.34
2019-06-26T05:23:58.329Z,20.30
2019-06-26T05:26:24.203Z,20.75
2019-06-26T05:28:50.078Z,20.36
2019-06-26T05:31:15.933Z,20.50
2019-06-26T05:33:41.853Z,20.50
2019-06-26T05:36:07.785Z,20.37
2019-06-26T05:38:33.652Z,20.24
2019-06-26T05:40:59.605Z,20.23
2019-06-26T05:43:25.528Z,20.21
2019-06-26T05:45:51.382Z,20.25
2019-06-26T05:48:17.347Z,20.25
2019-06-26T05:50:43.363Z,20.40
2019-06-26T05:53:09.203Z,20.49
2019-06-26T05:55:35.059Z,20.78
2019-06-26T05:58:00.901Z,20.50
2019-06-26T06:00:26.775Z,20.58
2019-06-26T06:02:53.990Z,20.59
2019-06-26T06:05:20.115Z,20.51
2019-06-26T06:07:45.983Z,20.65
2019-06-26T06:10:13.356Z,20.94
2019-06-26T06:12:39.226Z,21.13
2019-06-26T06:15:05.598Z,21.13
2019-06-26T06:17:31.456Z,21.00
2019-06-26T06:19:57.301Z,21.09
2019-06-26T06:22:23.178Z,21.41
2019-06-26T06:24:49.015Z,21.21
2019-06-26T06:27:14.892Z,21.25
2019-06-26T06:29:40.756Z,21.50
2019-06-26T06:32:06.607Z,21.51
2019-06-26T06:34:32.471Z,21.54
2019-06-26T06:36:59.228Z,21.46
2019-06-26T06:39:25.150Z,21.30
2019-06-26T06:41:51.010Z,21.30
2019-06-26T06:44:16.880Z,21.40
2019-06-26T06:46:42.733Z,21.72
2019-06-26T06:49:08.693Z,21.74
2019-06-26T06:51:34.560Z,21.95
2019-06-26T06:54:00.409Z,22.34
2019-06-26T06:56:26.259Z,22.28
2019-06-26T06:58:52.145Z,22.69
2019-06-26T07:01:17.982Z,22.83
2019-06-26T07:03:43.846Z,22.76
2019-06-26T07:06:09.705Z,22.80
2019-06-26T07:08:35.561Z,22.48
2019-06-26T07:11:01.512Z,22.15
2019-06-26T07:13:27.506Z,22.24
2019-06-26T07:15:53.411Z,22.28
2019-06-26T07:18:19.279Z,22.42
2019-06-26T07:20:45.136Z,22.61
2019-06-26T07:23:11.010Z,22.96
2019-06-26T07:25:36.937Z,22.69
2019-06-26T07:28:02.962Z,23.25
2019-06-26T07:30:28.812Z,23.29
2019-06-26T07:32:54.661Z,23.15
2019-06-26T07:35:20.540Z,22.95
2019-06-26T07:37:46.470Z,22.91
2019-06-26T07:40:12.936Z,23.00
2019-06-26T07:42:38.800Z,23.27
2019-06-26T07:45:05.270Z,23.02
2019-06-26T07:47:42.698Z,23.44
2019-06-26T07:49:58.887Z,23.45
2019-06-26T07:52:24.761Z,23.51
2019-06-26T07:54:50.598Z,23.65
2019-06-26T07:57:16.440Z,23.30
2019-06-26T07:59:42.317Z,23.26
2019-06-26T08:02:08.259Z,22.62
2019-06-26T08:06:59.866Z,22.50
2019-06-26T08:09:25.721Z,22.67
2019-06-26T08:11:51.602Z,23.04
2019-06-26T08:14:17.450Z,22.96
2019-06-26T08:16:43.308Z,22.90
2019-06-26T08:19:09.179Z,22.86
2019-06-26T08:21:35.030Z,22.65
2019-06-26T08:24:00.875Z,22.59
2019-06-26T08:26:26.744Z,22.55
2019-06-26T08:28:52.650Z,22.82
2019-06-26T08:31:18.504Z,22.61
2019-06-26T08:33:44.380Z,22.28
2019-06-26T08:36:10.230Z,22.36
2019-06-26T08:41:01.892Z,22.23
2019-06-26T08:43:31.090Z,22.18
2019-06-26T08:45:55.490Z,22.38
2019-06-26T08:48:38.442Z,22.30
2019-06-26T08:50:49.205Z,22.06
2019-06-26T08:53:15.406Z,22.37
2019-06-26T08:55:41.277Z,22.22
2019-06-26T08:58:07.247Z,22.27
2019-06-26T09:00:33.118Z,22.03
2019-06-26T09:02:58.981Z,21.95
2019-06-26T09:05:24.865Z,22.25
2019-06-26T09:07:50.788Z,22.19
2019-06-26T09:10:17.191Z,22.47
2019-06-26T09:12:43.061Z,22.29
2019-06-26T09:15:09.330Z,22.37
2019-06-26T09:17:35.307Z,22.35
2019-06-26T09:20:02.085Z,22.36
2019-06-26T09:22:28.000Z,22.11
2019-06-26T09:24:53.854Z,22.25
2019-06-26T09:27:19.753Z,22.34
2019-06-26T09:29:45.604Z,22.43
2019-06-26T09:32:11.472Z,22.42
2019-06-26T09:34:37.328Z,22.48
2019-06-26T09:37:03.156Z,22.58
2019-06-26T09:39:29.061Z,22.79
2019-06-26T09:41:54.901Z,22.51
2019-06-26T09:44:20.774Z,22.26
2019-06-26T09:46:46.640Z,22.61
2019-06-26T09:49:12.543Z,22.99
2019-06-26T09:51:38.372Z,22.75
2019-06-26T09:54:04.266Z,22.77
2019-06-26T09:56:30.349Z,22.82
2019-06-26T09:58:56.416Z,22.93
2019-06-26T10:01:22.386Z,23.02
2019-06-26T10:03:48.285Z,22.76
2019-06-26T10:06:14.120Z,23.09
2019-06-26T10:08:39.978Z,22.98
2019-06-26T10:11:06.026Z,23.02
2019-06-26T10:13:31.961Z,23.23
2019-06-26T10:16:00.415Z,23.36
2019-06-26T10:18:25.540Z,23.17
2019-06-26T10:20:51.387Z,23.20
2019-06-26T10:23:17.254Z,23.20
2019-06-26T10:25:43.249Z,23.26
2019-06-26T10:28:09.100Z,22.96
2019-06-26T10:30:35.016Z,23.11
2019-06-26T10:33:00.982Z,23.03
2019-06-26T10:35:26.878Z,22.54
2019-06-26T10:37:52.775Z,22.69
2019-06-26T10:40:19.116Z,22.88
2019-06-26T10:42:44.971Z,22.77
2019-06-26T10:45:11.133Z,22.79
2019-06-26T10:47:40.248Z,23.10
2019-06-26T10:50:06.833Z,23.07
2019-06-26T10:52:33.339Z,23.08
2019-06-26T10:54:59.197Z,23.23
2019-06-26T10:57:25.053Z,23.11
2019-06-26T10:59:55.715Z,23.15
2019-06-26T11:02:20.998Z,23.30
2019-06-26T11:04:47.264Z,23.30
2019-06-26T11:07:13.185Z,23.18
2019-06-26T11:09:39.057Z,23.28
2019-06-26T11:12:04.891Z,23.22
2019-06-26T11:14:30.748Z,23.36
2019-06-26T11:16:59.337Z,23.54
2019-06-26T11:19:25.186Z,23.47
2019-06-26T11:21:51.040Z,23.70
2019-06-26T11:24:17.027Z,23.72
2019-06-26T11:26:42.978Z,23.63
2019-06-26T11:29:08.856Z,23.82
2019-06-26T11:31:34.728Z,23.86
2019-06-26T11:34:01.683Z,23.74
2019-06-26T11:36:27.542Z,23.94
2019-06-26T11:38:53.389Z,23.85
2019-06-26T11:41:19.244Z,23.84
2019-06-26T11:43:45.100Z,24.06
2019-06-26T11:46:10.991Z,24.40
2019-06-26T11:48:36.918Z,24.47
2019-06-26T11:51:03.006Z,24.40
2019-06-26T11:53:33.301Z,24.40
2019-06-26T11:55:59.497Z,24.58
2019-06-26T11:58:25.344Z,24.26
2019-06-26T12:00:51.757Z,24.39
2019-06-26T12:03:17.638Z,24.64
2019-06-26T12:05:43.504Z,24.87
2019-06-26T12:08:09.602Z,24.62
2019-06-26T12:10:35.477Z,24.63
2019-06-26T12:13:04.092Z,24.92
2019-06-26T12:15:29.501Z,24.80
2019-06-26T12:17:55.368Z,24.79
2019-06-26T12:20:21.434Z,24.31
2019-06-26T12:22:47.285Z,24.55
2019-06-26T12:25:13.366Z,24.79
2019-06-26T12:27:39.221Z,24.69
2019-06-26T12:30:05.995Z,24.70
2019-06-26T12:32:41.514Z,24.55
2019-06-26T12:34:59.658Z,24.90
2019-06-26T12:37:36.875Z,24.99
2019-06-26T12:39:53.284Z,24.92
2019-06-26T12:42:19.194Z,25.28
2019-06-26T12:44:45.046Z,25.61
2019-06-26T12:47:10.893Z,25.37
2019-06-26T12:49:36.776Z,25.64
2019-06-26T12:52:03.230Z,25.41
2019-06-26T12:54:29.091Z,25.34
2019-06-26T12:56:54.972Z,25.42
2019-06-26T12:59:20.854Z,25.04
2019-06-26T13:01:46.712Z,25.12
2019-06-26T13:04:12.624Z,25.43
2019-06-26T13:06:38.450Z,25.42
2019-06-26T13:09:06.105Z,25.51
2019-06-26T13:11:31.974Z,25.73
2019-06-26T13:14:02.756Z,25.46
2019-06-26T13:16:25.606Z,25.58
2019-06-26T13:18:51.474Z,25.63
2019-06-26T13:21:17.336Z,25.56
2019-06-26T13:23:43.232Z,25.80
2019-06-26T13:26:09.074Z,25.65
2019-06-26T13:28:34.930Z,25.25
2019-06-26T13:31:00.836Z,25.33
2019-06-26T13:33:26.692Z,25.30
2019-06-26T13:35:52.560Z,25.32
2019-06-26T13:38:18.411Z,25.37
2019-06-26T13:40:44.276Z,25.03
2019-06-26T13:43:10.162Z,25.12
2019-06-26T13:45:36.010Z,25.61
2019-06-26T13:48:01.950Z,25.48
2019-06-26T13:50:27.949Z,25.65
2019-06-26T13:52:53.796Z,25.77
2019-06-26T13:55:19.676Z,25.66
2019-06-26T13:57:45.541Z,25.43
2019-06-26T14:00:11.942Z,25.37
2019-06-26T14:02:37.762Z,25.41
2019-06-26T14:05:07.830Z,25.16
2019-06-26T14:07:36.412Z,25.26
2019-06-26T14:10:04.261Z,25.53
2019-06-26T14:12:30.161Z,25.51
2019-06-26T14:14:58.037Z,25.50
2019-06-26T14:17:23.859Z,25.65
2019-06-26T14:19:49.729Z,25.65
2019-06-26T14:22:15.584Z,25.49
2019-06-26T14:24:41.434Z,25.46
2019-06-26T14:27:07.307Z,25.39
2019-06-26T14:29:33.300Z,25.44
2019-06-26T14:31:59.165Z,25.78
2019-06-26T14:34:27.977Z,25.65
2019-06-26T14:36:53.743Z,25.50
2019-06-26T14:39:19.593Z,25.30
2019-06-26T14:41:45.575Z,25.39
2019-06-26T14:44:11.437Z,25.74
2019-06-26T14:46:37.275Z,25.62
2019-06-26T14:49:03.161Z,25.30
2019-06-26T14:51:43.498Z,25.49
2019-06-26T14:53:56.742Z,25.53
2019-06-26T14:56:22.604Z,25.57
2019-06-26T14:58:48.446Z,25.44
2019-06-26T15:01:14.402Z,25.40
2019-06-26T15:03:40.268Z,25.45
2019-06-26T15:06:15.754Z,25.78
2019-06-26T15:08:33.877Z,25.66
2019-06-26T15:10:59.811Z,25.55
2019-06-26T15:13:25.679Z,25.57
2019-06-26T15:15:54.652Z,25.43
2019-06-26T15:18:19.307Z,25.61
2019-06-26T15:20:45.190Z,25.77
2019-06-26T15:23:11.090Z,25.63
2019-06-26T15:25:36.938Z,25.60
2019-06-26T15:28:02.825Z,25.51
2019-06-26T15:30:28.779Z,25.50
2019-06-26T15:32:54.651Z,25.55
2019-06-26T15:35:20.524Z,26.24
2019-06-26T15:37:46.489Z,26.46
2019-06-26T15:40:13.891Z,26.44
2019-06-26T15:42:40.252Z,26.56
2019-06-26T15:45:07.919Z,26.41
2019-06-26T15:47:35.726Z,26.28
2019-06-26T15:50:04.083Z,26.22
2019-06-26T15:52:31.565Z,26.41
2019-06-26T15:54:57.622Z,26.32
2019-06-26T15:57:23.494Z,26.27
2019-06-26T15:59:49.364Z,26.32
2019-06-26T16:02:15.324Z,26.13
2019-06-26T16:04:41.177Z,26.32
2019-06-26T16:07:07.055Z,26.09
2019-06-26T16:09:32.907Z,25.86
2019-06-26T16:11:59.085Z,25.64
2019-06-26T16:14:25.087Z,25.60
2019-06-26T16:16:52.913Z,25.70
2019-06-26T16:19:23.464Z,25.62
2019-06-26T16:21:49.315Z,25.64
2019-06-26T16:24:15.166Z,25.41
2019-06-26T16:26:41.073Z,25.48
2019-06-26T16:29:06.931Z,25.27
2019-06-26T16:31:32.827Z,25.29
2019-06-26T16:33:58.752Z,25.41
2019-06-26T16:36:24.646Z,25.21
2019-06-26T16:38:50.547Z,25.21
2019-06-26T16:41:16.490Z,25.26
2019-06-26T16:43:42.373Z,25.13
2019-06-26T16:46:08.193Z,24.97
2019-06-26T16:48:34.054Z,24.87
2019-06-26T16:50:59.908Z,24.73
2019-06-26T16:53:25.769Z,24.65
2019-06-26T16:55:53.129Z,24.78
2019-06-26T16:58:19.018Z,24.88
2019-06-26T17:00:44.912Z,25.11
2019-06-26T17:03:11.347Z,24.95
2019-06-26T17:05:37.234Z,24.87
2019-06-26T17:08:03.313Z,24.99
2019-06-26T17:10:29.172Z,24.78
2019-06-26T17:12:55.049Z,24.69
2019-06-26T17:15:21.028Z,24.80
2019-06-26T17:17:46.986Z,24.97
2019-06-26T17:20:14.992Z,24.89
2019-06-26T17:22:40.840Z,24.67
2019-06-26T17:25:07.190Z,24.58
2019-06-26T17:27:33.164Z,24.30
2019-06-26T17:29:59.086Z,24.25
2019-06-26T17:32:25.069Z,24.27
2019-06-26T17:34:50.952Z,24.37
2019-06-26T17:37:16.894Z,24.26
2019-06-26T17:39:42.834Z,24.11
2019-06-26T17:42:08.708Z,23.90
2019-06-26T17:44:34.553Z,24.05
2019-06-26T17:47:00.407Z,24.02
2019-06-26T17:49:26.288Z,23.91
2019-06-26T17:51:52.135Z,23.94
2019-06-26T17:54:18.006Z,23.93
2019-06-26T17:56:43.862Z,23.86
2019-06-26T17:59:09.716Z,23.93
2019-06-26T18:01:35.584Z,23.63
2019-06-26T18:04:01.442Z,23.68
2019-06-26T18:06:27.302Z,23.83
2019-06-26T18:08:53.157Z,23.58
2019-06-26T18:11:19.019Z,23.67
2019-06-26T18:13:44.880Z,23.64
2019-06-26T18:16:10.744Z,23.71
2019-06-26T18:18:36.840Z,23.65
2019-06-26T18:21:02.989Z,23.64
2019-06-26T18:23:37.785Z,23.57
2019-06-26T18:26:12.369Z,23.46
2019-06-26T18:28:27.857Z,23.46
2019-06-26T18:30:53.854Z,23.25
2019-06-26T18:33:19.709Z,23.39
2019-06-26T18:35:45.560Z,23.27
2019-06-26T18:38:11.441Z,23.22
2019-06-26T18:40:37.301Z,23.03
2019-06-26T18:43:03.396Z,22.86
2019-06-26T18:45:32.215Z,22.92
2019-06-26T18:47:58.066Z,22.79
2019-06-26T18:50:24.464Z,22.82
2019-06-26T18:52:52.270Z,22.62
2019-06-26T18:55:20.029Z,22.67
2019-06-26T18:57:45.909Z,22.58
2019-06-26T19:00:12.509Z,22.45
2019-06-26T19:02:38.402Z,22.44
2019-06-26T19:05:07.005Z,22.50
2019-06-26T19:07:33.031Z,22.39
2019-06-26T19:09:58.949Z,22.30
2019-06-26T19:12:25.177Z,22.26
2019-06-26T19:14:51.069Z,22.21
2019-06-26T19:17:17.175Z,22.13
2019-06-26T19:19:43.060Z,22.12
2019-06-26T19:22:08.953Z,22.06
2019-06-26T19:24:34.812Z,21.98
2019-06-26T19:27:00.696Z,21.90
2019-06-26T19:29:26.558Z,21.92
2019-06-26T19:31:55.467Z,21.60
2019-06-26T19:34:21.345Z,21.71
2019-06-26T19:36:50.522Z,21.63
2019-06-26T19:39:15.085Z,21.77
2019-06-26T19:41:40.955Z,21.66
2019-06-26T19:44:08.982Z,21.51
2019-06-26T19:46:34.750Z,21.54
2019-06-26T19:49:00.626Z,21.55
2019-06-26T19:51:26.919Z,21.29
2019-06-26T19:53:52.814Z,21.21
2019-06-26T19:56:20.214Z,21.20
2019-06-26T19:58:46.326Z,21.21
2019-06-26T20:01:12.216Z,21.07
2019-06-26T20:03:38.153Z,21.11
2019-06-26T20:06:04.217Z,20.94
2019-06-26T20:08:30.086Z,21.15
2019-06-26T20:10:55.934Z,21.03
2019-06-26T20:13:21.811Z,21.02
2019-06-26T20:15:47.663Z,21.04
2019-06-26T20:18:13.525Z,21.14
2019-06-26T20:20:39.407Z,20.91
2019-06-26T20:23:05.252Z,20.76
2019-06-26T20:25:31.102Z,20.83
2019-06-26T20:27:57.435Z,20.80
2019-06-26T20:30:27.079Z,20.76
2019-06-26T20:32:52.934Z,20.79
2019-06-26T20:35:18.804Z,20.63
2019-06-26T20:37:44.673Z,20.70
2019-06-26T20:40:10.855Z,20.61
2019-06-26T20:42:36.738Z,20.61
2019-06-26T20:45:04.109Z,20.59
2019-06-26T20:47:29.961Z,20.29
2019-06-26T20:49:55.861Z,20.35
2019-06-26T20:52:21.842Z,20.33
2019-06-26T20:55:00.617Z,20.27
2019-06-26T20:57:16.322Z,20.40
2019-06-26T20:59:42.189Z,20.21
2019-06-26T21:02:08.090Z,20.06
2019-06-26T21:04:33.986Z,20.01
2019-06-26T21:06:59.904Z,19.93
2019-06-26T21:09:25.841Z,19.93
2019-06-26T21:11:51.758Z,20.03
2019-06-26T21:14:17.738Z,19.88
2019-06-26T21:16:43.592Z,19.85
2019-06-26T21:19:09.456Z,19.81
2019-06-26T21:21:35.496Z,19.72
2019-06-26T21:24:01.337Z,19.70
2019-06-26T21:26:27.217Z,19.55
2019-06-26T21:28:53.093Z,19.58
2019-06-26T21:31:18.938Z,19.49
2019-06-26T21:33:44.815Z,19.42
2019-06-26T21:36:10.855Z,19.50
2019-06-26T21:38:36.848Z,19.54
2019-06-26T21:41:02.808Z,19.49
2019-06-26T21:43:29.588Z,19.39
2019-06-26T21:45:55.452Z,19.31
2019-06-26T21:48:21.324Z,19.21
2019-06-26T21:50:47.192Z,19.19
2019-06-26T21:53:13.073Z,19.09
2019-06-26T21:55:39.875Z,19.09
2019-06-26T21:58:05.862Z,19.07
2019-06-26T22:00:33.634Z,19.02
2019-06-26T22:02:59.486Z,18.86
2019-06-26T22:05:25.763Z,18.91
2019-06-26T22:07:51.631Z,18.95
2019-06-26T22:10:17.480Z,18.74
2019-06-26T22:12:43.325Z,18.82
2019-06-26T22:15:09.999Z,18.71
2019-06-26T22:17:35.841Z,18.81
2019-06-26T22:20:07.971Z,18.94
2019-06-26T22:22:32.266Z,18.61
2019-06-26T22:24:58.190Z,18.59
2019-06-26T22:27:24.012Z,18.33
2019-06-26T22:29:49.936Z,18.56
2019-06-26T22:32:15.793Z,18.28
2019-06-26T22:34:41.808Z,18.40
2019-06-26T22:37:07.744Z,18.54
2019-06-26T22:39:33.612Z,18.17
2019-06-26T22:41:59.463Z,18.20
2019-06-26T22:44:25.350Z,18.27
2019-06-26T22:46:51.218Z,18.14
2019-06-26T22:49:17.061Z,18.09
2019-06-26T22:51:42.971Z,18.35
2019-06-26T22:54:08.814Z,18.02
2019-06-26T22:56:34.668Z,18.05
2019-06-26T22:59:00.595Z,18.09
2019-06-26T23:01:26.469Z,18.21
2019-06-26T23:03:52.317Z,18.10
2019-06-26T23:06:18.226Z,18.05
2019-06-26T23:08:44.197Z,17.99
2019-06-26T23:11:10.057Z,18.06
2019-06-26T23:13:35.921Z,17.86
2019-06-26T23:16:01.847Z,17.70
2019-06-26T23:18:27.665Z,17.76
2019-06-26T23:20:53.525Z,17.86
2019-06-26T23:23:19.536Z,17.67
2019-06-26T23:25:45.386Z,17.49
2019-06-26T23:28:11.265Z,17.63
2019-06-26T23:30:37.133Z,18.03
2019-06-26T23:33:03.010Z,17.76
2019-06-26T23:35:28.862Z,17.75
2019-06-26T23:37:54.956Z,17.95
2019-06-26T23:40:21.132Z,18.18
2019-06-26T23:42:46.989Z,17.99
2019-06-26T23:45:13.057Z,18.02
2019-06-26T23:47:39.107Z,17.93
2019-06-26T23:50:08.835Z,17.72
2019-06-26T23:52:34.719Z,17.62
2019-06-26T23:55:00.622Z,17.49
2019-06-26T23:57:26.606Z,17.63
2019-06-26T23:59:53.192Z,17.47
